createdAt,value
2023-02-28T00:00:28.583Z,43.17
2023-02-28T00:02:55.540Z,41.42
2023-02-28T00:05:24.868Z,38.83
2023-02-28T00:07:52.383Z,44.65
2023-02-28T00:10:24.925Z,45.50
2023-02-28T00:12:52.947Z,46.72
2023-02-28T00:15:20.557Z,43.88
2023-02-28T00:17:47.521Z,43.60
2023-02-28T00:20:14.521Z,43.45
2023-02-28T00:22:44.874Z,43.35
2023-02-28T00:25:14.327Z,46.53
2023-02-28T00:27:42.159Z,50.47
2023-02-28T00:30:14.786Z,51.25
2023-02-28T00:32:42.259Z,48.75
2023-02-28T00:35:10.068Z,49.38
2023-02-28T00:37:37.072Z,53.08
2023-02-28T00:40:12.369Z,48.78
2023-02-28T00:42:39.599Z,54.83
2023-02-28T00:45:07.052Z,48.65
2023-02-28T00:47:33.842Z,51.63
2023-02-28T00:50:01.336Z,50.42
2023-02-28T00:52:28.157Z,57.08
2023-02-28T00:54:55.513Z,52.90
2023-02-28T00:57:22.566Z,53.10
2023-02-28T00:59:49.590Z,54.45
2023-02-28T01:02:16.366Z,50.35
2023-02-28T01:04:43.208Z,48.17
2023-02-28T01:07:10.029Z,51.83
2023-02-28T01:09:36.798Z,50.97
2023-02-28T01:12:03.875Z,46.20
2023-02-28T01:14:30.635Z,50.03
2023-02-28T01:16:57.444Z,46.97
2023-02-28T01:19:24.253Z,43.55
2023-02-28T01:21:51.677Z,49.70
2023-02-28T01:24:18.545Z,42.72
2023-02-28T01:26:45.352Z,47.88
2023-02-28T01:29:12.081Z,44.15
2023-02-28T01:31:38.959Z,45.78
2023-02-28T01:34:08.108Z,45.33
2023-02-28T01:36:34.986Z,48.03
2023-02-28T01:39:01.725Z,43.13
2023-02-28T01:41:32.312Z,44.85
2023-02-28T01:44:26.830Z,35.83
2023-02-28T01:46:53.583Z,46.58
2023-02-28T01:49:20.989Z,45.42
2023-02-28T01:51:53.288Z,42.55
2023-02-28T01:54:30.657Z,43.80
2023-02-28T01:57:05.064Z,45.42
2023-02-28T01:59:49.962Z,43.53
2023-02-28T02:02:18.936Z,38.67
2023-02-28T02:05:17.058Z,40.97
2023-02-28T02:07:46.469Z,42.03
2023-02-28T02:10:23.016Z,45.72
2023-02-28T02:12:49.728Z,45.58
2023-02-28T02:15:37.878Z,40.80
2023-02-28T02:18:41.979Z,39.10
2023-02-28T02:21:08.671Z,41.55
2023-02-28T02:23:57.308Z,41.42
2023-02-28T02:27:01.527Z,40.40
2023-02-28T02:29:49.398Z,36.42
2023-02-28T02:32:29.658Z,42.22
2023-02-28T02:35:33.024Z,32.58
2023-02-28T02:38:30.695Z,36.85
2023-02-28T02:41:20.601Z,36.33
2023-02-28T02:44:14.610Z,29.40
2023-02-28T02:46:46.395Z,30.23
2023-02-28T02:49:22.664Z,29.65
2023-02-28T02:51:50.880Z,27.02
2023-02-28T02:54:23.880Z,29.05
2023-02-28T02:56:52.425Z,23.08
2023-02-28T02:59:22.906Z,26.58
2023-02-28T03:02:17.601Z,25.65
2023-02-28T03:04:53.753Z,22.95
2023-02-28T03:07:20.913Z,28.08
2023-02-28T03:09:55.746Z,25.63
2023-02-28T03:12:29.470Z,25.20
2023-02-28T03:15:08.288Z,24.63
2023-02-28T03:17:47.889Z,25.23
2023-02-28T03:20:47.187Z,22.08
2023-02-28T03:23:22.761Z,21.20
2023-02-28T03:26:13.011Z,23.98
2023-02-28T03:29:21.042Z,25.15
2023-02-28T03:32:02.098Z,22.63
2023-02-28T03:34:40.646Z,24.73
2023-02-28T03:37:13.568Z,22.92
2023-02-28T03:39:46.334Z,22.20
2023-02-28T03:42:22.083Z,22.40
2023-02-28T03:44:58.069Z,22.50
2023-02-28T03:47:39.217Z,21.50
2023-02-28T03:50:23.773Z,21.45
2023-02-28T03:53:05.872Z,22.77
2023-02-28T03:55:43.815Z,22.98
2023-02-28T03:58:40.173Z,21.55
2023-02-28T04:01:30.611Z,23.15
2023-02-28T04:03:57.811Z,20.40
2023-02-28T04:06:25.482Z,24.05
2023-02-28T04:08:52.604Z,23.73
2023-02-28T04:11:24.757Z,21.50
2023-02-28T04:13:51.529Z,21.45
2023-02-28T04:16:33.566Z,22.67
2023-02-28T04:19:04.107Z,24.45
2023-02-28T04:21:31.742Z,22.27
2023-02-28T04:24:03.109Z,27.85
2023-02-28T04:26:38.923Z,20.52
2023-02-28T04:29:07.252Z,31.08
2023-02-28T04:31:34.619Z,24.25
2023-02-28T04:34:02.267Z,21.85
2023-02-28T04:36:29.520Z,19.48
2023-02-28T04:38:56.707Z,24.02
2023-02-28T04:41:23.889Z,21.50
2023-02-28T04:43:52.873Z,21.42
2023-02-28T04:46:20.426Z,20.60
2023-02-28T04:48:47.285Z,20.27
2023-02-28T04:51:16.205Z,24.40
2023-02-28T04:53:43.689Z,24.48
2023-02-28T04:56:13.908Z,21.70
2023-02-28T04:58:40.883Z,21.63
2023-02-28T05:01:18.051Z,26.23
2023-02-28T05:03:45.029Z,25.05
2023-02-28T05:06:13.260Z,25.88
2023-02-28T05:08:41.011Z,37.67
2023-02-28T05:11:14.849Z,36.47
2023-02-28T05:13:41.636Z,27.13
2023-02-28T05:16:08.618Z,24.92
2023-02-28T05:18:35.379Z,24.90
2023-02-28T05:21:04.906Z,28.52
2023-02-28T05:23:31.656Z,30.42
2023-02-28T05:25:58.697Z,27.63
2023-02-28T05:28:25.517Z,28.15
2023-02-28T05:30:52.285Z,26.23
2023-02-28T05:33:19.077Z,25.83
2023-02-28T05:35:46.124Z,32.38
2023-02-28T05:38:12.906Z,32.97
2023-02-28T05:40:41.422Z,27.25
2023-02-28T05:43:12.193Z,31.92
2023-02-28T05:45:39.175Z,30.15
2023-02-28T05:48:06.460Z,25.38
2023-02-28T05:50:33.221Z,28.02
2023-02-28T05:53:00.044Z,29.00
2023-02-28T05:55:26.939Z,21.42
2023-02-28T05:57:53.707Z,22.50
2023-02-28T06:00:20.799Z,23.35
2023-02-28T06:02:47.594Z,25.75
2023-02-28T06:05:17.223Z,24.83
2023-02-28T06:07:44.781Z,24.80
2023-02-28T06:10:12.928Z,22.13
2023-02-28T06:12:39.988Z,23.95
2023-02-28T06:15:07.217Z,24.98
2023-02-28T06:17:33.979Z,26.38
2023-02-28T06:20:00.791Z,47.25
2023-02-28T06:22:27.612Z,47.45
2023-02-28T06:24:55.799Z,40.60
2023-02-28T06:27:23.229Z,46.90
2023-02-28T06:29:50.075Z,23.65
2023-02-28T06:32:16.865Z,34.38
2023-02-28T06:34:43.754Z,28.33
2023-02-28T06:37:10.482Z,31.02
2023-02-28T06:39:37.545Z,58.40
2023-02-28T06:42:05.035Z,27.00
2023-02-28T06:44:36.428Z,26.73
2023-02-28T06:49:36.438Z,20.63
2023-02-28T06:52:03.911Z,26.23
2023-02-28T06:54:30.702Z,24.20
2023-02-28T06:56:59.281Z,24.23
2023-02-28T06:59:26.039Z,23.35
2023-02-28T07:01:53.269Z,19.20
2023-02-28T07:04:20.397Z,25.40
2023-02-28T07:06:47.121Z,23.13
2023-02-28T07:09:15.031Z,37.65
2023-02-28T07:11:44.026Z,25.10
2023-02-28T07:14:10.776Z,20.70
2023-02-28T07:16:37.757Z,21.80
2023-02-28T07:19:04.800Z,18.08
2023-02-28T07:21:31.819Z,19.33
2023-02-28T07:23:58.996Z,21.55
2023-02-28T07:26:25.816Z,21.38
2023-02-28T07:28:52.625Z,24.35
2023-02-28T07:31:19.850Z,21.25
2023-02-28T07:33:46.858Z,19.00
2023-02-28T07:36:16.665Z,17.15
2023-02-28T07:38:48.102Z,18.15
2023-02-28T07:43:43.106Z,21.52
2023-02-28T07:46:12.840Z,21.42
2023-02-28T07:48:39.684Z,20.48
2023-02-28T07:51:06.829Z,23.50
2023-02-28T07:53:33.828Z,24.83
2023-02-28T07:56:02.512Z,26.50
2023-02-28T07:58:31.399Z,17.73
2023-02-28T08:00:58.780Z,13.65
2023-02-28T08:03:26.101Z,12.65
2023-02-28T08:05:53.852Z,15.20
2023-02-28T08:08:20.732Z,17.88
2023-02-28T08:10:47.484Z,16.33
2023-02-28T08:13:14.227Z,16.52
2023-02-28T08:15:44.030Z,15.38
2023-02-28T08:18:11.128Z,15.50
2023-02-28T08:20:37.970Z,12.95
2023-02-28T08:23:04.785Z,14.77
2023-02-28T08:25:31.549Z,12.23
2023-02-28T08:27:58.364Z,13.85
2023-02-28T08:30:25.229Z,20.17
2023-02-28T08:32:52.028Z,14.07
2023-02-28T08:35:18.833Z,16.65
2023-02-28T08:37:45.914Z,15.02
2023-02-28T08:40:19.119Z,14.50
2023-02-28T08:42:46.894Z,12.00
2023-02-28T08:45:14.515Z,14.85
2023-02-28T08:47:42.020Z,14.48
2023-02-28T08:50:10.609Z,15.95
2023-02-28T08:52:37.450Z,10.23
2023-02-28T08:55:04.358Z,11.82
2023-02-28T08:57:31.151Z,10.60
2023-02-28T08:59:58.407Z,16.02
2023-02-28T09:02:25.206Z,11.90
2023-02-28T09:04:52.022Z,13.73
2023-02-28T09:07:18.837Z,12.32
2023-02-28T09:09:55.797Z,11.85
2023-02-28T09:12:27.204Z,11.20
2023-02-28T09:14:54.556Z,12.88
2023-02-28T09:17:21.883Z,13.68
2023-02-28T09:19:50.336Z,11.85
2023-02-28T09:22:17.625Z,10.65
2023-02-28T09:24:45.734Z,11.93
2023-02-28T09:27:12.597Z,14.63
2023-02-28T09:29:39.427Z,13.73
2023-02-28T09:32:07.013Z,11.02
2023-02-28T09:34:34.151Z,12.75
2023-02-28T09:37:00.987Z,11.45
2023-02-28T09:39:28.098Z,13.07
2023-02-28T09:41:56.701Z,11.10
2023-02-28T09:44:30.462Z,12.50
2023-02-28T09:47:09.596Z,10.73
2023-02-28T09:49:43.681Z,14.20
2023-02-28T09:52:14.960Z,10.80
2023-02-28T09:54:41.873Z,13.27
2023-02-28T09:57:26.928Z,13.00
2023-02-28T10:00:09.324Z,17.77
2023-02-28T10:02:47.362Z,11.77
2023-02-28T10:05:16.679Z,12.15
2023-02-28T10:08:12.981Z,12.57
2023-02-28T10:10:46.291Z,12.30
2023-02-28T10:13:19.149Z,34.20
2023-02-28T10:15:50.098Z,12.10
2023-02-28T10:18:26.581Z,13.23
2023-02-28T10:20:54.610Z,15.32
2023-02-28T10:23:49.116Z,19.27
2023-02-28T10:26:18.785Z,15.65
2023-02-28T10:28:46.466Z,13.02
2023-02-28T10:31:18.602Z,11.98
2023-02-28T10:33:46.284Z,14.75
2023-02-28T10:36:18.323Z,13.85
2023-02-28T10:38:47.555Z,11.45
2023-02-28T10:41:29.771Z,15.57
2023-02-28T10:44:16.656Z,16.30
2023-02-28T10:46:44.111Z,17.02
2023-02-28T10:49:23.225Z,14.75
2023-02-28T10:51:54.145Z,29.50
2023-02-28T10:54:38.923Z,36.17
2023-02-28T10:57:16.533Z,26.00
2023-02-28T10:59:43.656Z,14.27
2023-02-28T11:02:39.413Z,15.88
2023-02-28T11:05:29.353Z,15.20
2023-02-28T11:08:06.871Z,25.92
2023-02-28T11:10:35.949Z,21.33
2023-02-28T11:13:04.690Z,19.65
2023-02-28T11:15:34.591Z,15.98
2023-02-28T11:18:07.541Z,17.08
2023-02-28T11:20:35.905Z,20.38
2023-02-28T11:23:05.359Z,23.70
2023-02-28T11:25:39.986Z,15.52
2023-02-28T11:28:25.739Z,19.88
2023-02-28T11:31:04.935Z,11.70
2023-02-28T11:33:43.510Z,15.15
2023-02-28T11:36:32.133Z,15.93
2023-02-28T11:39:10.081Z,14.13
2023-02-28T11:42:08.553Z,14.20
2023-02-28T11:44:52.567Z,15.40
2023-02-28T11:47:27.826Z,13.70
2023-02-28T11:50:13.214Z,17.02
2023-02-28T11:52:57.156Z,16.17
2023-02-28T11:55:29.959Z,17.38
2023-02-28T11:58:11.890Z,13.05
2023-02-28T12:00:51.698Z,11.32
2023-02-28T12:03:31.703Z,13.40
2023-02-28T12:06:07.432Z,15.73
2023-02-28T12:09:02.220Z,14.90
2023-02-28T12:11:43.086Z,11.48
2023-02-28T12:14:48.270Z,12.60
2023-02-28T12:17:18.094Z,10.55
2023-02-28T12:20:11.668Z,13.00
2023-02-28T12:22:58.635Z,14.50
2023-02-28T12:25:50.588Z,13.25
2023-02-28T12:31:10.890Z,13.05
2023-02-28T12:33:45.037Z,16.30
2023-02-28T12:36:18.572Z,17.95
2023-02-28T12:38:50.721Z,14.80
2023-02-28T12:41:42.395Z,22.95
2023-02-28T12:44:21.773Z,27.25
2023-02-28T12:46:52.805Z,25.70
2023-02-28T12:49:38.355Z,24.10
2023-02-28T12:52:06.348Z,20.83
2023-02-28T12:54:51.296Z,17.70
2023-02-28T12:57:40.628Z,15.00
2023-02-28T13:00:15.475Z,23.85
2023-02-28T13:02:42.389Z,14.73
2023-02-28T13:05:27.943Z,15.00
2023-02-28T13:08:12.941Z,16.15
2023-02-28T13:10:45.969Z,17.58
2023-02-28T13:13:18.106Z,17.55
2023-02-28T13:16:11.193Z,18.10
2023-02-28T13:18:40.927Z,14.52
2023-02-28T13:21:28.229Z,18.48
2023-02-28T13:23:59.403Z,15.32
2023-02-28T13:26:32.317Z,13.52
2023-02-28T13:29:03.288Z,19.20
2023-02-28T13:31:30.428Z,14.93
2023-02-28T13:34:03.524Z,15.70
2023-02-28T13:36:31.505Z,18.48
2023-02-28T13:39:23.997Z,11.68
2023-02-28T13:41:50.875Z,15.88
2023-02-28T13:44:27.831Z,24.70
2023-02-28T13:46:57.806Z,38.30
2023-02-28T13:49:24.678Z,32.22
2023-02-28T13:51:51.896Z,38.40
2023-02-28T13:54:40.649Z,31.15
2023-02-28T13:57:38.779Z,30.73
2023-02-28T14:00:09.382Z,20.98
2023-02-28T14:03:18.088Z,13.10
2023-02-28T14:05:45.797Z,15.57
2023-02-28T14:08:22.073Z,18.38
2023-02-28T14:10:52.061Z,17.92
2023-02-28T14:13:46.138Z,30.33
2023-02-28T14:16:21.496Z,23.65
2023-02-28T14:18:57.388Z,35.33
2023-02-28T14:21:35.310Z,22.15
2023-02-28T14:24:21.896Z,25.55
2023-02-28T14:27:07.357Z,22.33
2023-02-28T14:29:49.448Z,24.23
2023-02-28T14:32:39.423Z,21.13
2023-02-28T14:35:41.644Z,19.90
2023-02-28T14:38:18.931Z,22.38
2023-02-28T14:40:48.703Z,24.95
2023-02-28T14:43:26.952Z,42.95
2023-02-28T14:46:05.401Z,19.80
2023-02-28T14:48:32.449Z,23.50
2023-02-28T14:51:01.753Z,15.80
2023-02-28T14:53:37.620Z,16.95
2023-02-28T14:56:04.865Z,26.67
2023-02-28T14:58:34.180Z,17.33
2023-02-28T15:01:04.585Z,18.30
2023-02-28T15:03:33.515Z,15.77
2023-02-28T15:06:04.983Z,14.85
2023-02-28T15:08:36.205Z,17.80
2023-02-28T15:11:05.452Z,18.48
2023-02-28T15:13:54.381Z,18.08
2023-02-28T15:16:30.711Z,17.63
2023-02-28T15:19:14.287Z,25.48
2023-02-28T15:21:47.141Z,32.30
2023-02-28T15:24:28.160Z,29.02
2023-02-28T15:26:58.987Z,23.67
2023-02-28T15:29:30.187Z,21.80
2023-02-28T15:31:58.585Z,24.08
2023-02-28T15:34:42.901Z,24.42
2023-02-28T15:37:53.510Z,19.23
2023-02-28T15:40:23.232Z,19.80
2023-02-28T15:43:18.477Z,20.50
2023-02-28T15:45:47.355Z,22.85
2023-02-28T15:48:19.929Z,22.27
2023-02-28T15:50:54.744Z,19.65
2023-02-28T15:53:29.821Z,21.25
2023-02-28T15:56:01.636Z,23.48
2023-02-28T15:58:29.821Z,23.85
2023-02-28T16:01:24.987Z,19.45
2023-02-28T16:03:54.829Z,20.35
2023-02-28T16:06:53.448Z,21.08
2023-02-28T16:09:20.373Z,16.90
2023-02-28T16:11:49.729Z,16.00
2023-02-28T16:14:25.236Z,21.33
2023-02-28T16:16:57.342Z,22.15
2023-02-28T16:19:25.149Z,21.27
2023-02-28T16:21:52.643Z,18.13
2023-02-28T16:24:19.600Z,21.92
2023-02-28T16:26:53.380Z,19.08
2023-02-28T16:29:28.854Z,22.02
2023-02-28T16:31:56.083Z,19.83
2023-02-28T16:34:23.738Z,20.83
2023-02-28T16:36:51.309Z,22.52
2023-02-28T16:39:18.366Z,29.73
2023-02-28T16:41:47.442Z,19.95
2023-02-28T16:44:22.651Z,24.38
2023-02-28T16:46:49.798Z,30.58
2023-02-28T16:49:16.900Z,26.20
2023-02-28T16:51:43.739Z,25.67
2023-02-28T16:54:11.168Z,30.45
2023-02-28T16:56:43.684Z,24.20
2023-02-28T16:59:14.148Z,26.60
2023-02-28T17:01:41.287Z,30.40
2023-02-28T17:04:12.095Z,29.23
2023-02-28T17:06:41.444Z,31.63
2023-02-28T17:09:22.989Z,35.28
2023-02-28T17:11:51.593Z,32.20
2023-02-28T17:14:18.969Z,33.50
2023-02-28T17:16:46.385Z,32.05
2023-02-28T17:19:16.204Z,31.33
2023-02-28T17:21:44.847Z,25.75
2023-02-28T17:24:22.190Z,32.45
2023-02-28T17:26:57.007Z,37.83
2023-02-28T17:29:25.564Z,30.42
2023-02-28T17:31:53.453Z,29.20
2023-02-28T17:34:22.429Z,33.60
2023-02-28T17:36:51.452Z,33.80
2023-02-28T17:39:25.661Z,30.25
2023-02-28T17:41:54.447Z,35.53
2023-02-28T17:44:22.359Z,37.85
2023-02-28T17:46:50.665Z,39.42
2023-02-28T17:49:20.642Z,36.05
2023-02-28T17:51:48.915Z,38.33
2023-02-28T17:54:18.982Z,39.58
2023-02-28T17:56:47.057Z,33.88
2023-02-28T17:59:14.203Z,33.80
2023-02-28T18:01:41.572Z,36.80
2023-02-28T18:04:08.776Z,44.00
2023-02-28T18:06:52.497Z,41.42
2023-02-28T18:09:25.575Z,35.47
2023-02-28T18:11:54.645Z,34.85
2023-02-28T18:14:47.326Z,37.05
2023-02-28T18:17:14.513Z,35.85
2023-02-28T18:19:42.784Z,33.88
2023-02-28T18:22:10.648Z,36.33
2023-02-28T18:24:38.850Z,36.97
2023-02-28T18:27:07.739Z,34.05
2023-02-28T18:29:35.170Z,36.22
2023-02-28T18:32:03.030Z,31.67
2023-02-28T18:34:31.945Z,35.40
2023-02-28T18:36:59.401Z,36.17
2023-02-28T18:39:26.856Z,43.85
2023-02-28T18:41:54.556Z,42.00
2023-02-28T18:44:22.318Z,36.33
2023-02-28T18:46:51.264Z,38.67
2023-02-28T18:49:19.189Z,35.50
2023-02-28T18:51:47.648Z,35.83
2023-02-28T18:54:16.913Z,40.58
2023-02-28T18:56:53.866Z,34.55
2023-02-28T18:59:23.104Z,32.83
2023-02-28T19:01:52.188Z,34.70
2023-02-28T19:04:20.057Z,36.08
2023-02-28T19:06:47.996Z,39.42
2023-02-28T19:09:17.571Z,39.50
2023-02-28T19:11:45.313Z,31.27
2023-02-28T19:14:13.124Z,30.05
2023-02-28T19:16:42.321Z,30.55
2023-02-28T19:19:11.101Z,31.80
2023-02-28T19:21:41.967Z,29.92
2023-02-28T19:24:09.748Z,32.67
2023-02-28T19:26:37.812Z,29.30
2023-02-28T19:29:06.166Z,28.95
2023-02-28T19:31:34.368Z,27.60
2023-02-28T19:34:03.852Z,31.17
2023-02-28T19:36:31.720Z,30.10
2023-02-28T19:39:00.291Z,32.67
2023-02-28T19:41:27.858Z,40.75
2023-02-28T19:43:55.517Z,35.35
2023-02-28T19:46:26.624Z,33.58
2023-02-28T19:48:54.470Z,29.90
2023-02-28T19:51:22.230Z,27.02
2023-02-28T19:53:49.419Z,29.08
2023-02-28T19:56:16.645Z,29.85
2023-02-28T19:58:44.174Z,39.88
2023-02-28T20:01:15.023Z,43.95
2023-02-28T20:03:43.348Z,41.83
2023-02-28T20:06:14.387Z,48.00
2023-02-28T20:08:42.378Z,45.65
2023-02-28T20:11:13.530Z,38.85
2023-02-28T20:13:41.060Z,38.60
2023-02-28T20:16:11.770Z,44.78
2023-02-28T20:18:40.922Z,41.67
2023-02-28T20:21:09.659Z,37.72
2023-02-28T20:23:42.101Z,43.78
2023-02-28T20:26:10.223Z,44.47
2023-02-28T20:28:39.106Z,49.40
2023-02-28T20:31:18.812Z,42.25
2023-02-28T20:33:47.026Z,40.40
2023-02-28T20:36:16.013Z,34.15
2023-02-28T20:38:44.470Z,31.90
2023-02-28T20:41:12.843Z,39.33
2023-02-28T20:43:40.934Z,37.90
2023-02-28T20:46:10.924Z,35.97
2023-02-28T20:48:39.162Z,37.55
2023-02-28T20:51:08.036Z,31.95
2023-02-28T20:53:37.062Z,31.77
2023-02-28T20:56:09.597Z,31.70
2023-02-28T20:58:38.641Z,37.78
2023-02-28T21:01:20.570Z,36.88
2023-02-28T21:03:50.189Z,36.72
2023-02-28T21:06:19.680Z,29.02
2023-02-28T21:08:47.228Z,27.75
2023-02-28T21:11:20.638Z,34.08
2023-02-28T21:13:48.466Z,27.88
2023-02-28T21:16:18.003Z,35.95
2023-02-28T21:18:46.149Z,32.95
2023-02-28T21:21:16.287Z,26.85
2023-02-28T21:23:45.449Z,31.55
2023-02-28T21:26:20.781Z,34.17
2023-02-28T21:28:53.012Z,29.00
2023-02-28T21:31:22.425Z,27.00
2023-02-28T21:33:49.944Z,29.95
2023-02-28T21:36:20.028Z,32.20
2023-02-28T21:38:48.709Z,30.63
2023-02-28T21:41:18.786Z,27.92
2023-02-28T21:43:46.096Z,27.50
2023-02-28T21:46:16.229Z,26.88
2023-02-28T21:48:44.020Z,26.88
2023-02-28T21:51:19.738Z,28.98
2023-02-28T21:53:48.417Z,30.65
2023-02-28T21:56:20.943Z,32.92
2023-02-28T21:58:48.485Z,28.10
2023-02-28T22:01:18.615Z,25.88
2023-02-28T22:03:46.357Z,27.98
2023-02-28T22:06:19.394Z,27.48
2023-02-28T22:08:48.266Z,25.98
2023-02-28T22:11:17.087Z,28.15
2023-02-28T22:13:44.440Z,29.88
2023-02-28T22:16:16.949Z,27.55
2023-02-28T22:18:44.121Z,23.65
2023-02-28T22:21:12.556Z,30.45
2023-02-28T22:23:40.905Z,26.70
2023-02-28T22:26:10.708Z,26.45
2023-02-28T22:28:37.754Z,43.33
2023-02-28T22:31:22.075Z,24.45
2023-02-28T22:33:50.136Z,29.65
2023-02-28T22:36:19.467Z,25.50
2023-02-28T22:38:48.171Z,28.40
2023-02-28T22:41:15.226Z,29.70
2023-02-28T22:43:42.722Z,32.03
2023-02-28T22:46:12.915Z,28.70
2023-02-28T22:48:40.107Z,27.88
2023-02-28T22:51:12.649Z,29.25
2023-02-28T22:53:40.044Z,30.05
2023-02-28T22:56:08.823Z,29.75
2023-02-28T22:58:36.423Z,25.77
2023-02-28T23:01:15.225Z,28.52
2023-02-28T23:03:44.549Z,27.58
2023-02-28T23:06:25.884Z,28.35
2023-02-28T23:08:56.553Z,28.55
2023-02-28T23:11:32.652Z,30.27
2023-02-28T23:13:59.824Z,28.50
2023-02-28T23:16:31.133Z,25.80
2023-02-28T23:18:59.944Z,25.42
2023-02-28T23:21:27.870Z,25.95
2023-02-28T23:23:54.974Z,26.48
2023-02-28T23:26:22.045Z,24.63
2023-02-28T23:28:48.957Z,27.30
2023-02-28T23:31:16.267Z,24.40
2023-02-28T23:33:43.091Z,25.17
2023-02-28T23:36:12.287Z,26.98
2023-02-28T23:38:41.029Z,26.48
2023-02-28T23:41:09.461Z,29.17
2023-02-28T23:43:36.864Z,29.27
2023-02-28T23:46:04.463Z,23.15
2023-02-28T23:48:31.361Z,27.70
2023-02-28T23:51:08.839Z,28.48
2023-02-28T23:53:39.986Z,25.17
2023-02-28T23:56:09.799Z,25.05
2023-02-28T23:58:37.222Z,26.80
